createdAt,value
2023-04-19T06:51:07.531Z,10.14
2023-04-19T07:01:07.698Z,10.24
2023-04-19T07:11:07.792Z,10.30
2023-04-19T07:21:07.942Z,10.40
2023-04-19T07:31:08.131Z,10.89
2023-04-19T07:41:08.426Z,11.25
2023-04-19T13:07:12.090Z,9.45
2023-04-19T13:17:12.173Z,9.09
2023-04-19T13:27:12.475Z,8.83
2023-04-19T13:37:12.558Z,8.72
2023-04-19T13:47:12.763Z,8.68
2023-04-19T13:57:12.922Z,8.72
2023-04-19T14:07:13.140Z,8.69
2023-04-19T14:17:13.310Z,9.06
2023-04-19T14:27:13.624Z,8.81
2023-04-19T14:37:13.675Z,9.06
2023-04-19T14:47:13.905Z,8.93
2023-04-19T14:57:14.066Z,9.21
2023-04-19T15:07:14.303Z,9.13
2023-04-19T15:17:14.348Z,8.94
2023-04-19T15:27:14.572Z,8.87
2023-04-19T15:37:14.744Z,9.12
2023-04-19T15:47:14.954Z,9.45
2023-04-19T15:57:16.187Z,9.81
2023-04-19T16:07:15.542Z,10.04
2023-04-19T16:17:15.455Z,10.00
2023-04-19T16:27:15.822Z,10.10
2023-04-19T16:37:15.829Z,10.03
2023-04-19T16:47:15.987Z,9.78
2023-04-19T16:57:16.337Z,9.61
2023-04-19T17:07:16.373Z,9.56
2023-04-19T17:17:16.568Z,9.43
2023-04-19T17:27:16.547Z,9.04
2023-04-19T17:37:16.699Z,9.30
2023-04-19T17:47:16.900Z,9.10
2023-04-19T17:57:17.066Z,8.84
2023-04-19T18:07:17.296Z,8.44
2023-04-19T18:17:17.458Z,8.08
2023-04-19T18:27:17.664Z,7.69
2023-04-19T18:37:17.819Z,7.22
2023-04-19T18:47:18.036Z,6.81
2023-04-19T18:57:22.483Z,6.43
2023-04-19T19:07:34.416Z,6.13
2023-04-19T19:17:19.596Z,6.13
2023-04-19T19:27:18.808Z,6.13
2023-04-19T19:37:19.016Z,5.93
2023-04-19T19:47:19.237Z,5.66
2023-04-19T19:58:14.161Z,5.30
2023-04-19T20:07:29.348Z,4.92
2023-04-19T20:17:20.678Z,4.61
2023-04-19T20:27:19.891Z,4.29
2023-04-19T20:37:20.043Z,4.32
2023-04-19T20:47:20.270Z,4.25
2023-04-19T20:57:20.446Z,3.92
2023-04-19T21:07:20.676Z,3.72
2023-04-19T21:17:21.074Z,3.61
2023-04-19T21:27:21.089Z,3.58
2023-04-19T21:37:21.160Z,3.90
2023-04-19T21:47:21.414Z,3.46
2023-04-19T21:57:21.511Z,3.43
2023-04-19T22:07:21.732Z,3.20
2023-04-19T22:17:22.172Z,2.94
2023-04-19T22:27:22.045Z,2.89
2023-04-19T22:37:22.202Z,2.97
2023-04-19T22:47:22.755Z,2.98
2023-04-19T22:57:22.511Z,3.13
2023-04-19T23:07:22.754Z,2.79
2023-04-19T23:17:22.878Z,2.85
2023-04-19T23:27:23.269Z,2.56
2023-04-19T23:37:23.094Z,2.34
2023-04-19T23:47:23.387Z,2.45
2023-04-19T23:57:23.468Z,2.67
